Atwood, Wisconsin
Current Conditions -  °F | °C
As of 5:55 PM on Sunday 21 Dec 2014 (Local Time) from KMDZ Reporting Station
Light Rain Light Rain  
Wind Chill: -6°   Ceiling: 300
Heat Index:   Visibility: 2mi
Dew Point:   Wind: 16mph
Humidity: 99%   Direction: 150°SSE
Pressure: 29.83"   Gusts: 22mph
Location:  44.9782°N, 90.5368°W
Report Text: KMDZ 212355Z AUTO 15014G19KT 2SM -RA OVC003 00/00 A2983 RMK AO2 60001 T00010000 10001 21010
Loading
Personal Weather Stations






























Interactive Weather Map New forecast layout! Learn more

10-Day Weather Forecast

Advertisements
Track Severe Weather on mobile